sensor_id;sensor_type;location;lat;lon;timestamp;temperature;humidity
18868;DHT22;9563;49.240;9.088;2023-12-20T05:02:18;5.50;99.90
18868;DHT22;9563;49.240;9.088;2023-12-20T05:04:45;5.50;99.90
18868;DHT22;9563;49.240;9.088;2023-12-20T05:07:12;5.40;99.90
18868;DHT22;9563;49.240;9.088;2023-12-20T05:09:39;5.50;99.90
18868;DHT22;9563;49.240;9.088;2023-12-20T05:12:07;5.40;99.90
18868;DHT22;9563;49.240;9.088;2023-12-20T05:14:34;5.40;99.90
18868;DHT22;9563;49.240;9.088;2023-12-20T05:17:01;5.40;99.90
18868;DHT22;9563;49.240;9.088;2023-12-20T05:19:30;5.50;99.90
18868;DHT22;9563;49.240;9.088;2023-12-20T05:22:00;5.50;99.90
18868;DHT22;9563;49.240;9.088;2023-12-20T05:24:27;5.50;99.90
18868;DHT22;9563;49.240;9.088;2023-12-20T05:26:54;5.50;99.90
18868;DHT22;9563;49.240;9.088;2023-12-20T05:29:21;5.50;99.90
18868;DHT22;9563;49.240;9.088;2023-12-20T05:31:48;5.50;99.90
18868;DHT22;9563;49.240;9.088;2023-12-20T05:34:15;5.50;99.90
18868;DHT22;9563;49.240;9.088;2023-12-20T05:36:43;5.60;99.90
18868;DHT22;9563;49.240;9.088;2023-12-20T05:39:10;5.60;99.90
18868;DHT22;9563;49.240;9.088;2023-12-20T05:41:37;5.50;99.90
18868;DHT22;9563;49.240;9.088;2023-12-20T05:44:04;5.50;99.90
18868;DHT22;9563;49.240;9.088;2023-12-20T05:46:31;5.50;99.90
18868;DHT22;9563;49.240;9.088;2023-12-20T05:48:58;5.50;99.90
18868;DHT22;9563;49.240;9.088;2023-12-20T05:51:25;5.50;99.90
18868;DHT22;9563;49.240;9.088;2023-12-20T05:53:53;5.60;99.90
18868;DHT22;9563;49.240;9.088;2023-12-20T05:56:20;5.60;99.90
18868;DHT22;9563;49.240;9.088;2023-12-20T05:58:47;5.60;99.90
18868;DHT22;9563;49.240;9.088;2023-12-20T06:01:14;5.60;99.90
18868;DHT22;9563;49.240;9.088;2023-12-20T06:03:42;5.60;99.90
18868;DHT22;9563;49.240;9.088;2023-12-20T06:06:10;5.60;99.90
18868;DHT22;9563;49.240;9.088;2023-12-20T06:08:38;5.60;99.90
18868;DHT22;9563;49.240;9.088;2023-12-20T06:11:06;5.60;99.90
18868;DHT22;9563;49.240;9.088;2023-12-20T06:13:33;5.60;99.90
18868;DHT22;9563;49.240;9.088;2023-12-20T06:16:01;5.60;99.90
18868;DHT22;9563;49.240;9.088;2023-12-20T06:18:28;5.60;99.90
18868;DHT22;9563;49.240;9.088;2023-12-20T06:20:55;5.60;99.90
18868;DHT22;9563;49.240;9.088;2023-12-20T06:23:22;5.70;99.90
18868;DHT22;9563;49.240;9.088;2023-12-20T06:25:49;5.70;99.90
18868;DHT22;9563;49.240;9.088;2023-12-20T06:28:18;5.70;99.90
18868;DHT22;9563;49.240;9.088;2023-12-20T06:30:45;5.70;99.90
18868;DHT22;9563;49.240;9.088;2023-12-20T06:33:12;5.70;99.90
18868;DHT22;9563;49.240;9.088;2023-12-20T06:35:39;5.70;99.90
18868;DHT22;9563;49.240;9.088;2023-12-20T06:38:06;5.70;99.90
18868;DHT22;9563;49.240;9.088;2023-12-20T06:40:34;5.70;99.90
18868;DHT22;9563;49.240;9.088;2023-12-20T06:43:01;5.70;99.90
18868;DHT22;9563;49.240;9.088;2023-12-20T06:45:29;5.70;99.90
18868;DHT22;9563;49.240;9.088;2023-12-20T06:47:56;5.70;99.90
18868;DHT22;9563;49.240;9.088;2023-12-20T06:50:22;5.80;99.90
18868;DHT22;9563;49.240;9.088;2023-12-20T06:52:49;5.80;99.90
18868;DHT22;9563;49.240;9.088;2023-12-20T06:55:17;5.80;99.90
18868;DHT22;9563;49.240;9.088;2023-12-20T06:57:44;5.80;99.90
18868;DHT22;9563;49.240;9.088;2023-12-20T07:00:13;5.80;99.90
18868;DHT22;9563;49.240;9.088;2023-12-20T07:02:41;5.80;99.90
18868;DHT22;9563;49.240;9.088;2023-12-20T07:05:08;6.10;99.90
18868;DHT22;9563;49.240;9.088;2023-12-20T07:07:35;6.10;99.90
18868;DHT22;9563;49.240;9.088;2023-12-20T07:10:02;6.50;99.90
18868;DHT22;9563;49.240;9.088;2023-12-20T07:12:29;6.60;99.90
18868;DHT22;9563;49.240;9.088;2023-12-20T07:14:56;6.60;99.90
18868;DHT22;9563;49.240;9.088;2023-12-20T07:17:23;6.60;99.90
18868;DHT22;9563;49.240;9.088;2023-12-20T07:19:51;6.40;99.90
18868;DHT22;9563;49.240;9.088;2023-12-20T07:22:18;6.30;99.90
18868;DHT22;9563;49.240;9.088;2023-12-20T07:24:45;6.30;99.90
18868;DHT22;9563;49.240;9.088;2023-12-20T07:27:13;6.20;99.90
18868;DHT22;9563;49.240;9.088;2023-12-20T07:29:40;6.20;99.90
18868;DHT22;9563;49.240;9.088;2023-12-20T07:32:07;6.10;99.90
18868;DHT22;9563;49.240;9.088;2023-12-20T07:34:34;6.10;99.90
18868;DHT22;9563;49.240;9.088;2023-12-20T07:37:03;6.10;99.90
18868;DHT22;9563;49.240;9.088;2023-12-20T07:39:29;6.10;99.90
18868;DHT22;9563;49.240;9.088;2023-12-20T07:41:56;6.10;99.90
18868;DHT22;9563;49.240;9.088;2023-12-20T07:44:23;6.00;99.90
18868;DHT22;9563;49.240;9.088;2023-12-20T07:46:50;6.00;99.90
18868;DHT22;9563;49.240;9.088;2023-12-20T07:49:17;5.90;99.90
18868;DHT22;9563;49.240;9.088;2023-12-20T07:51:45;5.90;99.90
18868;DHT22;9563;49.240;9.088;2023-12-20T07:54:13;5.90;99.90
18868;DHT22;9563;49.240;9.088;2023-12-20T07:56:40;5.80;99.90
18868;DHT22;9563;49.240;9.088;2023-12-20T07:59:07;5.70;99.90
18868;DHT22;9563;49.240;9.088;2023-12-20T08:01:34;5.60;99.90
18868;DHT22;9563;49.240;9.088;2023-12-20T08:04:01;5.50;99.90
18868;DHT22;9563;49.240;9.088;2023-12-20T08:06:28;5.40;99.90
18868;DHT22;9563;49.240;9.088;2023-12-20T08:08:55;5.40;99.90
18868;DHT22;9563;49.240;9.088;2023-12-20T08:11:23;5.30;99.90
18868;DHT22;9563;49.240;9.088;2023-12-20T08:13:50;5.30;99.90
18868;DHT22;9563;49.240;9.088;2023-12-20T08:16:17;5.30;99.90
18868;DHT22;9563;49.240;9.088;2023-12-20T08:18:44;5.40;99.90
18868;DHT22;9563;49.240;9.088;2023-12-20T08:21:11;5.40;99.90
18868;DHT22;9563;49.240;9.088;2023-12-20T08:23:38;5.50;99.90
18868;DHT22;9563;49.240;9.088;2023-12-20T08:26:05;5.60;99.90
18868;DHT22;9563;49.240;9.088;2023-12-20T08:28:34;5.50;99.90
18868;DHT22;9563;49.240;9.088;2023-12-20T08:31:01;5.50;99.90
18868;DHT22;9563;49.240;9.088;2023-12-20T08:33:28;5.50;99.90
18868;DHT22;9563;49.240;9.088;2023-12-20T08:35:55;5.50;99.90
18868;DHT22;9563;49.240;9.088;2023-12-20T08:38:22;5.50;99.90
18868;DHT22;9563;49.240;9.088;2023-12-20T08:40:48;5.50;99.90
18868;DHT22;9563;49.240;9.088;2023-12-20T08:43:15;5.50;99.90
18868;DHT22;9563;49.240;9.088;2023-12-20T08:45:44;5.50;99.90
18868;DHT22;9563;49.240;9.088;2023-12-20T08:48:11;5.50;99.90
18868;DHT22;9563;49.240;9.088;2023-12-20T08:50:37;5.50;99.90
18868;DHT22;9563;49.240;9.088;2023-12-20T08:53:04;5.50;99.90
18868;DHT22;9563;49.240;9.088;2023-12-20T08:55:31;5.50;99.90
18868;DHT22;9563;49.240;9.088;2023-12-20T08:57:58;5.40;99.90
18868;DHT22;9563;49.240;9.088;2023-12-20T09:00:25;5.50;99.90
18868;DHT22;9563;49.240;9.088;2023-12-20T09:02:55;5.50;99.90
18868;DHT22;9563;49.240;9.088;2023-12-20T09:05:22;5.50;99.90
18868;DHT22;9563;49.240;9.088;2023-12-20T09:07:51;5.50;99.90
18868;DHT22;9563;49.240;9.088;2023-12-20T09:10:18;5.50;99.90
18868;DHT22;9563;49.240;9.088;2023-12-20T09:12:47;5.60;99.90
18868;DHT22;9563;49.240;9.088;2023-12-20T09:15:15;5.70;99.90
18868;DHT22;9563;49.240;9.088;2023-12-20T09:17:42;5.90;99.90
18868;DHT22;9563;49.240;9.088;2023-12-20T09:20:11;6.10;99.90
18868;DHT22;9563;49.240;9.088;2023-12-20T09:22:39;6.50;99.90
18868;DHT22;9563;49.240;9.088;2023-12-20T09:25:08;6.70;99.90
18868;DHT22;9563;49.240;9.088;2023-12-20T09:27:35;7.00;99.90
18868;DHT22;9563;49.240;9.088;2023-12-20T09:30:03;7.10;99.90
18868;DHT22;9563;49.240;9.088;2023-12-20T09:32:30;7.00;99.90
18868;DHT22;9563;49.240;9.088;2023-12-20T09:34:57;6.70;99.90
18868;DHT22;9563;49.240;9.088;2023-12-20T09:37:27;6.40;99.90
18868;DHT22;9563;49.240;9.088;2023-12-20T09:39:54;6.30;99.90
18868;DHT22;9563;49.240;9.088;2023-12-20T09:42:27;6.10;99.90
18868;DHT22;9563;49.240;9.088;2023-12-20T09:44:57;6.10;99.90
18868;DHT22;9563;49.240;9.088;2023-12-20T09:47:27;6.00;99.90
18868;DHT22;9563;49.240;9.088;2023-12-20T09:49:54;6.00;99.90
18868;DHT22;9563;49.240;9.088;2023-12-20T09:52:22;6.00;99.90
18868;DHT22;9563;49.240;9.088;2023-12-20T09:54:52;6.00;99.90
18868;DHT22;9563;49.240;9.088;2023-12-20T09:57:20;6.40;99.90
18868;DHT22;9563;49.240;9.088;2023-12-20T09:59:47;6.50;99.90
18868;DHT22;9563;49.240;9.088;2023-12-20T10:02:14;6.50;99.90
18868;DHT22;9563;49.240;9.088;2023-12-20T10:04:47;6.40;99.90
18868;DHT22;9563;49.240;9.088;2023-12-20T10:07:15;6.30;99.90
18868;DHT22;9563;49.240;9.088;2023-12-20T10:09:42;6.30;99.90
18868;DHT22;9563;49.240;9.088;2023-12-20T10:12:12;6.20;99.90
18868;DHT22;9563;49.240;9.088;2023-12-20T10:14:39;6.20;99.90
18868;DHT22;9563;49.240;9.088;2023-12-20T10:17:06;6.10;99.90
18868;DHT22;9563;49.240;9.088;2023-12-20T10:19:34;6.10;99.90
18868;DHT22;9563;49.240;9.088;2023-12-20T10:22:01;6.10;99.90
18868;DHT22;9563;49.240;9.088;2023-12-20T10:24:30;6.30;99.90
18868;DHT22;9563;49.240;9.088;2023-12-20T10:27:04;6.40;99.90
18868;DHT22;9563;49.240;9.088;2023-12-20T10:29:35;6.50;99.90
18868;DHT22;9563;49.240;9.088;2023-12-20T10:32:21;6.60;99.90
18868;DHT22;9563;49.240;9.088;2023-12-20T10:34:49;6.70;99.90
18868;DHT22;9563;49.240;9.088;2023-12-20T10:37:16;6.70;99.90
18868;DHT22;9563;49.240;9.088;2023-12-20T10:39:44;6.60;99.90
18868;DHT22;9563;49.240;9.088;2023-12-20T10:42:15;6.60;99.90
18868;DHT22;9563;49.240;9.088;2023-12-20T10:44:44;6.60;99.90
18868;DHT22;9563;49.240;9.088;2023-12-20T10:47:11;6.50;99.90
18868;DHT22;9563;49.240;9.088;2023-12-20T10:49:39;6.40;99.90
18868;DHT22;9563;49.240;9.088;2023-12-20T10:52:08;6.40;99.90
18868;DHT22;9563;49.240;9.088;2023-12-20T10:54:35;6.30;99.90
18868;DHT22;9563;49.240;9.088;2023-12-20T10:57:05;6.30;99.90
18868;DHT22;9563;49.240;9.088;2023-12-20T10:59:33;6.30;99.90
18868;DHT22;9563;49.240;9.088;2023-12-20T11:02:04;6.30;99.90
18868;DHT22;9563;49.240;9.088;2023-12-20T11:04:39;6.30;99.90
18868;DHT22;9563;49.240;9.088;2023-12-20T11:07:17;6.30;99.90
18868;DHT22;9563;49.240;9.088;2023-12-20T11:09:56;6.40;99.90
18868;DHT22;9563;49.240;9.088;2023-12-20T11:12:32;6.60;99.90
18868;DHT22;9563;49.240;9.088;2023-12-20T11:15:02;6.70;99.90
18868;DHT22;9563;49.240;9.088;2023-12-20T11:17:31;6.70;99.90
18868;DHT22;9563;49.240;9.088;2023-12-20T11:20:06;6.70;99.90
18868;DHT22;9563;49.240;9.088;2023-12-20T11:22:35;6.70;99.90
18868;DHT22;9563;49.240;9.088;2023-12-20T11:25:05;6.90;99.90
18868;DHT22;9563;49.240;9.088;2023-12-20T11:27:34;7.10;99.90
18868;DHT22;9563;49.240;9.088;2023-12-20T11:30:03;7.00;99.90
18868;DHT22;9563;49.240;9.088;2023-12-20T11:32:36;6.80;99.90
18868;DHT22;9563;49.240;9.088;2023-12-20T11:35:17;6.70;99.90
18868;DHT22;9563;49.240;9.088;2023-12-20T11:37:45;6.70;99.90
18868;DHT22;9563;49.240;9.088;2023-12-20T11:40:15;6.60;99.90
18868;DHT22;9563;49.240;9.088;2023-12-20T11:42:43;6.50;99.90
18868;DHT22;9563;49.240;9.088;2023-12-20T11:45:13;6.50;99.90
18868;DHT22;9563;49.240;9.088;2023-12-20T11:47:43;6.50;99.90
18868;DHT22;9563;49.240;9.088;2023-12-20T11:50:11;6.40;99.90
18868;DHT22;9563;49.240;9.088;2023-12-20T11:52:38;6.40;99.90
18868;DHT22;9563;49.240;9.088;2023-12-20T11:55:06;6.40;99.90
18868;DHT22;9563;49.240;9.088;2023-12-20T11:57:33;6.30;99.90
18868;DHT22;9563;49.240;9.088;2023-12-20T12:00:00;6.20;99.90
18868;DHT22;9563;49.240;9.088;2023-12-20T12:02:28;6.20;99.90
18868;DHT22;9563;49.240;9.088;2023-12-20T12:04:57;6.30;99.90
18868;DHT22;9563;49.240;9.088;2023-12-20T12:07:24;6.30;99.90
18868;DHT22;9563;49.240;9.088;2023-12-20T12:09:52;6.30;99.90
18868;DHT22;9563;49.240;9.088;2023-12-20T12:12:19;6.30;99.90
18868;DHT22;9563;49.240;9.088;2023-12-20T12:14:46;6.20;99.90
18868;DHT22;9563;49.240;9.088;2023-12-20T12:17:14;6.20;99.90
18868;DHT22;9563;49.240;9.088;2023-12-20T12:20:03;6.20;99.90
18868;DHT22;9563;49.240;9.088;2023-12-20T12:22:30;6.10;99.90
18868;DHT22;9563;49.240;9.088;2023-12-20T12:24:59;6.10;99.90
18868;DHT22;9563;49.240;9.088;2023-12-20T12:27:35;6.20;99.90
18868;DHT22;9563;49.240;9.088;2023-12-20T12:30:05;6.30;99.90
18868;DHT22;9563;49.240;9.088;2023-12-20T12:32:32;6.40;99.90
18868;DHT22;9563;49.240;9.088;2023-12-20T12:34:59;6.30;99.90
18868;DHT22;9563;49.240;9.088;2023-12-20T12:37:31;6.50;99.90
18868;DHT22;9563;49.240;9.088;2023-12-20T12:40:00;6.50;99.90
18868;DHT22;9563;49.240;9.088;2023-12-20T12:42:26;6.40;99.90
18868;DHT22;9563;49.240;9.088;2023-12-20T12:44:54;6.30;99.90
18868;DHT22;9563;49.240;9.088;2023-12-20T12:47:21;6.30;99.90
18868;DHT22;9563;49.240;9.088;2023-12-20T12:49:49;6.30;99.90
18868;DHT22;9563;49.240;9.088;2023-12-20T12:52:18;6.30;99.90
18868;DHT22;9563;49.240;9.088;2023-12-20T12:54:46;6.20;99.90
18868;DHT22;9563;49.240;9.088;2023-12-20T12:57:14;6.20;99.90
18868;DHT22;9563;49.240;9.088;2023-12-20T12:59:41;6.10;99.90
18868;DHT22;9563;49.240;9.088;2023-12-20T13:02:09;6.10;99.90
18868;DHT22;9563;49.240;9.088;2023-12-20T13:04:36;6.00;99.90
18868;DHT22;9563;49.240;9.088;2023-12-20T13:07:03;5.90;99.90
18868;DHT22;9563;49.240;9.088;2023-12-20T13:09:31;5.90;99.90
18868;DHT22;9563;49.240;9.088;2023-12-20T13:11:59;5.80;99.90
18868;DHT22;9563;49.240;9.088;2023-12-20T13:14:29;5.80;99.90
18868;DHT22;9563;49.240;9.088;2023-12-20T13:16:56;5.70;99.90
18868;DHT22;9563;49.240;9.088;2023-12-20T13:19:23;5.70;99.90
18868;DHT22;9563;49.240;9.088;2023-12-20T13:21:50;5.70;99.90
18868;DHT22;9563;49.240;9.088;2023-12-20T13:24:17;5.70;99.90
18868;DHT22;9563;49.240;9.088;2023-12-20T13:26:44;5.80;99.90
18868;DHT22;9563;49.240;9.088;2023-12-20T13:29:13;5.70;99.90
18868;DHT22;9563;49.240;9.088;2023-12-20T13:31:40;5.70;99.90
18868;DHT22;9563;49.240;9.088;2023-12-20T13:34:07;5.70;99.90
18868;DHT22;9563;49.240;9.088;2023-12-20T13:36:34;5.70;99.90
18868;DHT22;9563;49.240;9.088;2023-12-20T13:39:02;5.70;99.90
18868;DHT22;9563;49.240;9.088;2023-12-20T13:41:31;5.70;99.90
18868;DHT22;9563;49.240;9.088;2023-12-20T13:43:58;5.70;99.90
18868;DHT22;9563;49.240;9.088;2023-12-20T13:46:26;5.70;99.90
18868;DHT22;9563;49.240;9.088;2023-12-20T13:48:53;5.70;99.90
18868;DHT22;9563;49.240;9.088;2023-12-20T13:51:20;5.70;99.90
18868;DHT22;9563;49.240;9.088;2023-12-20T13:53:47;5.70;99.90
18868;DHT22;9563;49.240;9.088;2023-12-20T13:56:15;5.70;99.90
18868;DHT22;9563;49.240;9.088;2023-12-20T13:58:42;5.60;99.90
18868;DHT22;9563;49.240;9.088;2023-12-20T14:01:10;5.60;99.90
18868;DHT22;9563;49.240;9.088;2023-12-20T14:03:38;5.60;99.90
18868;DHT22;9563;49.240;9.088;2023-12-20T14:06:06;5.60;99.90
18868;DHT22;9563;49.240;9.088;2023-12-20T14:08:33;5.60;99.90
18868;DHT22;9563;49.240;9.088;2023-12-20T14:11:01;5.60;99.90
18868;DHT22;9563;49.240;9.088;2023-12-20T14:13:28;5.60;99.90
18868;DHT22;9563;49.240;9.088;2023-12-20T14:15:55;5.60;99.90
18868;DHT22;9563;49.240;9.088;2023-12-20T14:18:24;5.50;99.90
18868;DHT22;9563;49.240;9.088;2023-12-20T14:20:52;5.50;99.90
18868;DHT22;9563;49.240;9.088;2023-12-20T14:23:19;5.40;99.90
18868;DHT22;9563;49.240;9.088;2023-12-20T14:25:46;5.40;99.90
18868;DHT22;9563;49.240;9.088;2023-12-20T14:28:14;5.40;99.90
18868;DHT22;9563;49.240;9.088;2023-12-20T14:30:41;5.30;99.90
18868;DHT22;9563;49.240;9.088;2023-12-20T14:33:08;5.40;99.90
18868;DHT22;9563;49.240;9.088;2023-12-20T14:35:35;5.30;99.90
18868;DHT22;9563;49.240;9.088;2023-12-20T14:38:04;5.30;99.90
18868;DHT22;9563;49.240;9.088;2023-12-20T14:40:31;5.30;99.90
18868;DHT22;9563;49.240;9.088;2023-12-20T14:42:58;5.40;99.90
18868;DHT22;9563;49.240;9.088;2023-12-20T14:45:26;5.40;99.90
18868;DHT22;9563;49.240;9.088;2023-12-20T14:47:54;5.40;99.90
18868;DHT22;9563;49.240;9.088;2023-12-20T14:50:21;5.40;99.90
18868;DHT22;9563;49.240;9.088;2023-12-20T14:52:48;5.30;99.90
18868;DHT22;9563;49.240;9.088;2023-12-20T14:55:16;5.40;99.90
18868;DHT22;9563;49.240;9.088;2023-12-20T14:57:43;5.40;99.90
18868;DHT22;9563;49.240;9.088;2023-12-20T15:00:10;5.30;99.90
18868;DHT22;9563;49.240;9.088;2023-12-20T15:02:41;5.30;99.90
18868;DHT22;9563;49.240;9.088;2023-12-20T15:05:08;5.40;99.90
18868;DHT22;9563;49.240;9.088;2023-12-20T15:07:36;5.40;99.90
18868;DHT22;9563;49.240;9.088;2023-12-20T15:10:03;5.40;99.90
18868;DHT22;9563;49.240;9.088;2023-12-20T15:12:32;5.40;99.90
18868;DHT22;9563;49.240;9.088;2023-12-20T15:15:00;5.40;99.90
18868;DHT22;9563;49.240;9.088;2023-12-20T15:17:27;5.30;99.90
18868;DHT22;9563;49.240;9.088;2023-12-20T15:19:54;5.30;99.90
18868;DHT22;9563;49.240;9.088;2023-12-20T15:22:21;5.30;99.90
18868;DHT22;9563;49.240;9.088;2023-12-20T15:24:48;5.30;99.90
18868;DHT22;9563;49.240;9.088;2023-12-20T15:27:17;5.20;99.90
18868;DHT22;9563;49.240;9.088;2023-12-20T15:29:46;5.20;99.90
18868;DHT22;9563;49.240;9.088;2023-12-20T15:32:15;5.10;99.90
18868;DHT22;9563;49.240;9.088;2023-12-20T15:34:44;5.10;99.90
18868;DHT22;9563;49.240;9.088;2023-12-20T15:37:11;5.10;99.90
18868;DHT22;9563;49.240;9.088;2023-12-20T15:39:38;5.10;99.90
18868;DHT22;9563;49.240;9.088;2023-12-20T15:42:05;5.10;99.90
18868;DHT22;9563;49.240;9.088;2023-12-20T15:44:32;5.00;99.90
18868;DHT22;9563;49.240;9.088;2023-12-20T15:47:00;5.00;99.90
18868;DHT22;9563;49.240;9.088;2023-12-20T15:49:27;5.00;99.90
18868;DHT22;9563;49.240;9.088;2023-12-20T15:51:54;5.10;99.90
18868;DHT22;9563;49.240;9.088;2023-12-20T15:54:21;5.10;99.90
18868;DHT22;9563;49.240;9.088;2023-12-20T15:56:48;5.20;99.90
18868;DHT22;9563;49.240;9.088;2023-12-20T15:59:15;5.20;99.90
18868;DHT22;9563;49.240;9.088;2023-12-20T16:01:42;5.20;99.90
18868;DHT22;9563;49.240;9.088;2023-12-20T16:04:11;5.20;99.90
18868;DHT22;9563;49.240;9.088;2023-12-20T16:06:38;5.30;99.90
18868;DHT22;9563;49.240;9.088;2023-12-20T16:09:05;5.30;99.90
18868;DHT22;9563;49.240;9.088;2023-12-20T16:11:33;5.30;99.90
18868;DHT22;9563;49.240;9.088;2023-12-20T16:14:00;5.30;99.90
18868;DHT22;9563;49.240;9.088;2023-12-20T16:16:27;5.40;99.90
18868;DHT22;9563;49.240;9.088;2023-12-20T16:18:54;5.40;99.90
18868;DHT22;9563;49.240;9.088;2023-12-20T16:21:22;5.40;99.90
18868;DHT22;9563;49.240;9.088;2023-12-20T16:23:49;5.40;99.90
18868;DHT22;9563;49.240;9.088;2023-12-20T16:26:16;5.50;99.90
18868;DHT22;9563;49.240;9.088;2023-12-20T16:28:43;5.50;99.90
18868;DHT22;9563;49.240;9.088;2023-12-20T16:31:10;5.50;99.90
18868;DHT22;9563;49.240;9.088;2023-12-20T16:33:37;5.50;99.90
18868;DHT22;9563;49.240;9.088;2023-12-20T16:36:05;5.50;99.90
18868;DHT22;9563;49.240;9.088;2023-12-20T16:38:33;5.50;99.90
18868;DHT22;9563;49.240;9.088;2023-12-20T16:41:02;5.60;99.90
18868;DHT22;9563;49.240;9.088;2023-12-20T16:43:29;5.60;99.90
18868;DHT22;9563;49.240;9.088;2023-12-20T16:45:56;5.70;99.90
18868;DHT22;9563;49.240;9.088;2023-12-20T16:48:23;5.60;99.90
18868;DHT22;9563;49.240;9.088;2023-12-20T16:50:49;5.70;99.90
18868;DHT22;9563;49.240;9.088;2023-12-20T16:53:17;5.70;99.90
18868;DHT22;9563;49.240;9.088;2023-12-20T16:55:47;5.70;99.90
18868;DHT22;9563;49.240;9.088;2023-12-20T16:58:14;5.70;99.90
18868;DHT22;9563;49.240;9.088;2023-12-20T17:00:40;5.70;99.90
18868;DHT22;9563;49.240;9.088;2023-12-20T17:03:08;5.70;99.90
18868;DHT22;9563;49.240;9.088;2023-12-20T17:05:34;5.70;99.90
18868;DHT22;9563;49.240;9.088;2023-12-20T17:08:03;5.70;99.90
18868;DHT22;9563;49.240;9.088;2023-12-20T17:10:30;5.70;99.90
18868;DHT22;9563;49.240;9.088;2023-12-20T17:12:58;5.70;99.90
18868;DHT22;9563;49.240;9.088;2023-12-20T17:15:26;5.80;99.90
18868;DHT22;9563;49.240;9.088;2023-12-20T17:17:52;5.80;99.90
18868;DHT22;9563;49.240;9.088;2023-12-20T17:20:19;5.80;99.90
18868;DHT22;9563;49.240;9.088;2023-12-20T17:22:47;5.80;99.90
18868;DHT22;9563;49.240;9.088;2023-12-20T17:25:13;5.70;99.90
18868;DHT22;9563;49.240;9.088;2023-12-20T17:27:42;5.80;99.90
18868;DHT22;9563;49.240;9.088;2023-12-20T17:30:13;5.80;99.90
18868;DHT22;9563;49.240;9.088;2023-12-20T17:32:41;5.80;99.90
18868;DHT22;9563;49.240;9.088;2023-12-20T17:35:14;5.80;99.90
18868;DHT22;9563;49.240;9.088;2023-12-20T17:37:41;5.80;99.90
18868;DHT22;9563;49.240;9.088;2023-12-20T17:40:09;5.80;99.90
18868;DHT22;9563;49.240;9.088;2023-12-20T17:42:36;5.80;99.90
18868;DHT22;9563;49.240;9.088;2023-12-20T17:45:03;5.80;99.90
18868;DHT22;9563;49.240;9.088;2023-12-20T17:47:32;5.80;99.90
18868;DHT22;9563;49.240;9.088;2023-12-20T17:49:58;5.80;99.90
18868;DHT22;9563;49.240;9.088;2023-12-20T17:52:25;5.90;99.90
18868;DHT22;9563;49.240;9.088;2023-12-20T17:54:52;5.90;99.90
18868;DHT22;9563;49.240;9.088;2023-12-20T17:57:19;5.90;99.90
18868;DHT22;9563;49.240;9.088;2023-12-20T17:59:49;5.90;99.90
18868;DHT22;9563;49.240;9.088;2023-12-20T18:02:16;5.90;99.90
18868;DHT22;9563;49.240;9.088;2023-12-20T18:04:44;6.00;99.90
18868;DHT22;9563;49.240;9.088;2023-12-20T18:07:12;6.00;99.90
18868;DHT22;9563;49.240;9.088;2023-12-20T18:09:39;6.00;99.90
18868;DHT22;9563;49.240;9.088;2023-12-20T18:12:06;6.00;99.90
18868;DHT22;9563;49.240;9.088;2023-12-20T18:14:34;6.00;99.90
18868;DHT22;9563;49.240;9.088;2023-12-20T18:17:00;6.10;99.90
18868;DHT22;9563;49.240;9.088;2023-12-20T18:19:28;6.00;99.90
18868;DHT22;9563;49.240;9.088;2023-12-20T18:21:56;6.00;99.90
18868;DHT22;9563;49.240;9.088;2023-12-20T18:24:23;6.00;99.90
18868;DHT22;9563;49.240;9.088;2023-12-20T18:26:50;6.00;99.90
18868;DHT22;9563;49.240;9.088;2023-12-20T18:29:17;6.00;99.90
18868;DHT22;9563;49.240;9.088;2023-12-20T18:31:44;6.00;99.90
18868;DHT22;9563;49.240;9.088;2023-12-20T18:34:11;6.00;99.90
18868;DHT22;9563;49.240;9.088;2023-12-20T18:36:38;6.00;99.90
18868;DHT22;9563;49.240;9.088;2023-12-20T18:39:06;6.00;99.90
18868;DHT22;9563;49.240;9.088;2023-12-20T18:41:34;6.00;99.90
18868;DHT22;9563;49.240;9.088;2023-12-20T18:44:01;6.00;99.90
18868;DHT22;9563;49.240;9.088;2023-12-20T18:46:29;6.00;99.90
18868;DHT22;9563;49.240;9.088;2023-12-20T18:48:56;6.00;99.90
18868;DHT22;9563;49.240;9.088;2023-12-20T18:51:23;6.00;99.90
18868;DHT22;9563;49.240;9.088;2023-12-20T18:53:50;6.00;99.90
18868;DHT22;9563;49.240;9.088;2023-12-20T18:56:19;6.00;99.90
18868;DHT22;9563;49.240;9.088;2023-12-20T18:58:46;6.00;99.90
18868;DHT22;9563;49.240;9.088;2023-12-20T19:01:13;6.00;99.90
18868;DHT22;9563;49.240;9.088;2023-12-20T19:03:40;6.00;99.90
18868;DHT22;9563;49.240;9.088;2023-12-20T19:06:07;6.00;99.90
18868;DHT22;9563;49.240;9.088;2023-12-20T19:08:35;6.00;99.90
18868;DHT22;9563;49.240;9.088;2023-12-20T19:11:03;6.00;99.90
18868;DHT22;9563;49.240;9.088;2023-12-20T19:13:31;6.00;99.90
18868;DHT22;9563;49.240;9.088;2023-12-20T19:15:58;6.00;99.90
18868;DHT22;9563;49.240;9.088;2023-12-20T19:18:26;5.90;99.90
18868;DHT22;9563;49.240;9.088;2023-12-20T19:20:53;5.90;99.90
18868;DHT22;9563;49.240;9.088;2023-12-20T19:23:20;6.00;99.90
18868;DHT22;9563;49.240;9.088;2023-12-20T19:25:47;5.90;99.90
18868;DHT22;9563;49.240;9.088;2023-12-20T19:28:14;5.90;99.90
18868;DHT22;9563;49.240;9.088;2023-12-20T19:30:43;5.90;99.90
18868;DHT22;9563;49.240;9.088;2023-12-20T19:33:10;5.90;99.90
18868;DHT22;9563;49.240;9.088;2023-12-20T19:35:37;5.90;99.90
18868;DHT22;9563;49.240;9.088;2023-12-20T19:38:19;5.90;99.90
18868;DHT22;9563;49.240;9.088;2023-12-20T19:40:46;5.90;99.90
18868;DHT22;9563;49.240;9.088;2023-12-20T19:43:15;5.90;99.90
18868;DHT22;9563;49.240;9.088;2023-12-20T19:45:43;5.90;99.90
18868;DHT22;9563;49.240;9.088;2023-12-20T19:48:10;5.90;99.90
18868;DHT22;9563;49.240;9.088;2023-12-20T19:50:38;5.90;99.90
18868;DHT22;9563;49.240;9.088;2023-12-20T19:53:05;5.90;99.90
18868;DHT22;9563;49.240;9.088;2023-12-20T19:55:32;5.90;99.90
18868;DHT22;9563;49.240;9.088;2023-12-20T19:57:59;5.90;99.90
18868;DHT22;9563;49.240;9.088;2023-12-20T20:00:27;5.90;99.90
18868;DHT22;9563;49.240;9.088;2023-12-20T20:02:56;6.00;99.90
18868;DHT22;9563;49.240;9.088;2023-12-20T20:05:23;5.90;99.90
18868;DHT22;9563;49.240;9.088;2023-12-20T20:07:51;5.90;99.90
18868;DHT22;9563;49.240;9.088;2023-12-20T20:10:18;6.00;99.90
18868;DHT22;9563;49.240;9.088;2023-12-20T20:12:45;6.00;99.90
18868;DHT22;9563;49.240;9.088;2023-12-20T20:15:12;6.00;99.90
18868;DHT22;9563;49.240;9.088;2023-12-20T20:17:39;6.00;99.90
18868;DHT22;9563;49.240;9.088;2023-12-20T20:20:09;6.00;99.90
18868;DHT22;9563;49.240;9.088;2023-12-20T20:22:36;6.00;99.90
18868;DHT22;9563;49.240;9.088;2023-12-20T20:25:03;6.00;99.90
18868;DHT22;9563;49.240;9.088;2023-12-20T20:27:30;6.00;99.90
18868;DHT22;9563;49.240;9.088;2023-12-20T20:29:57;6.00;99.90
18868;DHT22;9563;49.240;9.088;2023-12-20T20:32:24;6.00;99.90
18868;DHT22;9563;49.240;9.088;2023-12-20T20:34:53;6.00;99.90
18868;DHT22;9563;49.240;9.088;2023-12-20T20:37:21;6.00;99.90
18868;DHT22;9563;49.240;9.088;2023-12-20T20:39:48;6.00;99.90
18868;DHT22;9563;49.240;9.088;2023-12-20T20:42:15;6.00;99.90
18868;DHT22;9563;49.240;9.088;2023-12-20T20:44:42;6.00;99.90
18868;DHT22;9563;49.240;9.088;2023-12-20T20:47:09;6.00;99.90
18868;DHT22;9563;49.240;9.088;2023-12-20T20:49:36;6.00;99.90
18868;DHT22;9563;49.240;9.088;2023-12-20T20:52:03;6.00;99.90
18868;DHT22;9563;49.240;9.088;2023-12-20T20:54:32;6.00;99.90
18868;DHT22;9563;49.240;9.088;2023-12-20T20:56:59;6.00;99.90
18868;DHT22;9563;49.240;9.088;2023-12-20T20:59:26;6.00;99.90
18868;DHT22;9563;49.240;9.088;2023-12-20T21:01:53;6.00;99.90
18868;DHT22;9563;49.240;9.088;2023-12-20T21:04:20;5.90;99.90
18868;DHT22;9563;49.240;9.088;2023-12-20T21:06:47;5.90;99.90